Adventureland Estates, Iowa
Current Conditions -  °F | °C
As of 10:15 AM on Monday 24 Nov 2014 (Local Time) from KIKV Reporting Station
Overcast Overcast  
Wind Chill: 12°   Ceiling: 2200
Heat Index: 27°   Visibility: 10mi
Dew Point: 18°   Wind: 23mph
Humidity: 69%   Direction: 290°WNW
Pressure: 29.57"   Gusts: 30mph
Location:  41.6405°N, 93.4586°W
Report Text: KIKV 241615Z AUTO 29020G26KT 10SM OVC022 M03/M08 A2957 RMK AO2
Loading
Personal Weather Stations






























Interactive Weather Map New forecast layout! Learn more

10-Day Weather Forecast

Advertisements
Track Severe Weather on mobile